sensor_id;sensor_type;location;lat;lon;timestamp;pressure;altitude;pressure_sealevel;temperature
59339;BMP280;45117;50.960;5.500;2023-02-01T00:02:13;101263.75;;;4.86
59339;BMP280;45117;50.960;5.500;2023-02-01T00:04:39;101262.75;;;4.91
59339;BMP280;45117;50.960;5.500;2023-02-01T00:07:06;101261.97;;;4.90
59339;BMP280;45117;50.960;5.500;2023-02-01T00:09:32;101266.28;;;4.95
59339;BMP280;45117;50.960;5.500;2023-02-01T00:11:59;101255.19;;;4.93
59339;BMP280;45117;50.960;5.500;2023-02-01T00:14:27;101246.13;;;4.94
59339;BMP280;45117;50.960;5.500;2023-02-01T00:16:53;101253.34;;;4.93
59339;BMP280;45117;50.960;5.500;2023-02-01T00:19:21;101249.78;;;4.89
59339;BMP280;45117;50.960;5.500;2023-02-01T00:21:48;101251.13;;;4.83
59339;BMP280;45117;50.960;5.500;2023-02-01T00:24:14;101250.13;;;4.87
59339;BMP280;45117;50.960;5.500;2023-02-01T00:26:42;101250.81;;;4.84
59339;BMP280;45117;50.960;5.500;2023-02-01T00:29:11;101241.16;;;4.80
59339;BMP280;45117;50.960;5.500;2023-02-01T00:31:38;101246.94;;;4.82
59339;BMP280;45117;50.960;5.500;2023-02-01T00:34:04;101236.63;;;4.80
59339;BMP280;45117;50.960;5.500;2023-02-01T00:36:32;101239.72;;;4.82
59339;BMP280;45117;50.960;5.500;2023-02-01T00:38:59;101236.00;;;4.71
59339;BMP280;45117;50.960;5.500;2023-02-01T00:41:26;101232.19;;;4.84
59339;BMP280;45117;50.960;5.500;2023-02-01T00:43:52;101230.19;;;4.81
59339;BMP280;45117;50.960;5.500;2023-02-01T00:46:19;101227.81;;;4.92
59339;BMP280;45117;50.960;5.500;2023-02-01T00:48:47;101219.84;;;4.92
59339;BMP280;45117;50.960;5.500;2023-02-01T00:51:16;101203.28;;;4.99
59339;BMP280;45117;50.960;5.500;2023-02-01T00:53:44;101192.84;;;5.06
59339;BMP280;45117;50.960;5.500;2023-02-01T00:56:11;101192.84;;;5.06
59339;BMP280;45117;50.960;5.500;2023-02-01T00:58:38;101195.41;;;5.02
59339;BMP280;45117;50.960;5.500;2023-02-01T01:01:06;101191.28;;;5.05
59339;BMP280;45117;50.960;5.500;2023-02-01T01:03:35;101188.72;;;5.08
59339;BMP280;45117;50.960;5.500;2023-02-01T01:06:05;101179.97;;;5.08
59339;BMP280;45117;50.960;5.500;2023-02-01T01:08:32;101180.56;;;5.17
59339;BMP280;45117;50.960;5.500;2023-02-01T01:11:04;101181.69;;;5.16
59339;BMP280;45117;50.960;5.500;2023-02-01T01:13:30;101193.88;;;5.17
59339;BMP280;45117;50.960;5.500;2023-02-01T01:15:59;101197.31;;;5.18
59339;BMP280;45117;50.960;5.500;2023-02-01T01:18:27;101205.72;;;5.20
59339;BMP280;45117;50.960;5.500;2023-02-01T01:20:54;101212.94;;;5.19
59339;BMP280;45117;50.960;5.500;2023-02-01T01:23:20;101224.34;;;5.20
59339;BMP280;45117;50.960;5.500;2023-02-01T01:25:47;101211.16;;;5.23
59339;BMP280;45117;50.960;5.500;2023-02-01T01:28:15;101215.69;;;5.23
59339;BMP280;45117;50.960;5.500;2023-02-01T01:30:41;101206.69;;;5.27
59339;BMP280;45117;50.960;5.500;2023-02-01T01:33:08;101213.09;;;5.26
59339;BMP280;45117;50.960;5.500;2023-02-01T01:35:34;101210.91;;;5.28
59339;BMP280;45117;50.960;5.500;2023-02-01T01:38:01;101211.66;;;5.29
59339;BMP280;45117;50.960;5.500;2023-02-01T01:40:28;101198.84;;;5.34
59339;BMP280;45117;50.960;5.500;2023-02-01T01:42:55;101204.38;;;5.41
59339;BMP280;45117;50.960;5.500;2023-02-01T01:45:25;101185.72;;;5.41
59339;BMP280;45117;50.960;5.500;2023-02-01T01:47:54;101187.72;;;5.45
59339;BMP280;45117;50.960;5.500;2023-02-01T01:50:24;101192.34;;;5.48
59339;BMP280;45117;50.960;5.500;2023-02-01T01:52:52;101190.38;;;5.45
59339;BMP280;45117;50.960;5.500;2023-02-01T01:55:22;101193.44;;;5.47
59339;BMP280;45117;50.960;5.500;2023-02-01T01:57:53;101196.03;;;5.43
59339;BMP280;45117;50.960;5.500;2023-02-01T02:00:23;101199.03;;;5.41
59339;BMP280;45117;50.960;5.500;2023-02-01T02:02:54;101207.19;;;5.33
59339;BMP280;45117;50.960;5.500;2023-02-01T02:05:21;101206.69;;;5.27
59339;BMP280;45117;50.960;5.500;2023-02-01T02:07:49;101229.16;;;5.46
59339;BMP280;45117;50.960;5.500;2023-02-01T02:10:17;101220.91;;;5.51
59339;BMP280;45117;50.960;5.500;2023-02-01T02:12:45;101223.84;;;5.46
59339;BMP280;45117;50.960;5.500;2023-02-01T02:15:14;101234.09;;;5.44
59339;BMP280;45117;50.960;5.500;2023-02-01T02:17:50;101235.63;;;5.45
59339;BMP280;45117;50.960;5.500;2023-02-01T02:20:30;101235.19;;;5.42
59339;BMP280;45117;50.960;5.500;2023-02-01T02:26:38;101236.09;;;5.34
59339;BMP280;45117;50.960;5.500;2023-02-01T02:29:38;101233.38;;;5.31
59339;BMP280;45117;50.960;5.500;2023-02-01T02:32:34;101226.47;;;5.30
59339;BMP280;45117;50.960;5.500;2023-02-01T02:35:11;101218.78;;;5.25
59339;BMP280;45117;50.960;5.500;2023-02-01T02:37:46;101222.03;;;5.18
59339;BMP280;45117;50.960;5.500;2023-02-01T02:40:18;101227.53;;;5.25
59339;BMP280;45117;50.960;5.500;2023-02-01T02:42:52;101224.34;;;5.20
59339;BMP280;45117;50.960;5.500;2023-02-01T02:45:49;101219.03;;;5.20
59339;BMP280;45117;50.960;5.500;2023-02-01T02:48:38;101225.22;;;5.24
59339;BMP280;45117;50.960;5.500;2023-02-01T02:51:13;101215.25;;;5.21
59339;BMP280;45117;50.960;5.500;2023-02-01T02:54:05;101203.94;;;5.24
59339;BMP280;45117;50.960;5.500;2023-02-01T02:56:52;101207.78;;;5.26
59339;BMP280;45117;50.960;5.500;2023-02-01T02:59:38;101215.44;;;5.28
59339;BMP280;45117;50.960;5.500;2023-02-01T03:02:25;101221.53;;;5.28
59339;BMP280;45117;50.960;5.500;2023-02-01T03:05:10;101215.53;;;5.31
59339;BMP280;45117;50.960;5.500;2023-02-01T03:07:53;101213.81;;;5.23
59339;BMP280;45117;50.960;5.500;2023-02-01T03:10:26;101211.31;;;5.14
59339;BMP280;45117;50.960;5.500;2023-02-01T03:12:53;101204.03;;;5.11
59339;BMP280;45117;50.960;5.500;2023-02-01T03:15:24;101201.94;;;5.05
59339;BMP280;45117;50.960;5.500;2023-02-01T03:17:55;101200.63;;;4.99
59339;BMP280;45117;50.960;5.500;2023-02-01T03:20:23;101188.97;;;5.03
59339;BMP280;45117;50.960;5.500;2023-02-01T03:22:52;101185.72;;;4.94
59339;BMP280;45117;50.960;5.500;2023-02-01T03:25:23;101193.78;;;4.98
59339;BMP280;45117;50.960;5.500;2023-02-01T03:27:53;101190.94;;;4.91
59339;BMP280;45117;50.960;5.500;2023-02-01T03:30:22;101196.44;;;4.98
59339;BMP280;45117;50.960;5.500;2023-02-01T03:32:54;101192.06;;;4.89
59339;BMP280;45117;50.960;5.500;2023-02-01T03:35:28;101189.19;;;4.82
59339;BMP280;45117;50.960;5.500;2023-02-01T03:38:01;101188.06;;;4.83
59339;BMP280;45117;50.960;5.500;2023-02-01T03:40:33;101185.00;;;4.81
59339;BMP280;45117;50.960;5.500;2023-02-01T03:43:02;101189.19;;;4.82
59339;BMP280;45117;50.960;5.500;2023-02-01T03:45:34;101180.34;;;4.78
59339;BMP280;45117;50.960;5.500;2023-02-01T03:48:04;101191.44;;;4.80
59339;BMP280;45117;50.960;5.500;2023-02-01T03:50:33;101185.47;;;4.71
59339;BMP280;45117;50.960;5.500;2023-02-01T03:53:05;101194.25;;;4.72
59339;BMP280;45117;50.960;5.500;2023-02-01T03:55:34;101197.59;;;4.69
59339;BMP280;45117;50.960;5.500;2023-02-01T03:58:06;101205.44;;;4.65
59339;BMP280;45117;50.960;5.500;2023-02-01T04:00:34;101198.03;;;4.58
59339;BMP280;45117;50.960;5.500;2023-02-01T04:03:01;101206.38;;;4.57
59339;BMP280;45117;50.960;5.500;2023-02-01T04:05:29;101199.59;;;4.59
59339;BMP280;45117;50.960;5.500;2023-02-01T04:07:56;101203.72;;;4.57
59339;BMP280;45117;50.960;5.500;2023-02-01T04:10:24;101194.34;;;4.47
59339;BMP280;45117;50.960;5.500;2023-02-01T04:12:51;101199.59;;;4.59
59339;BMP280;45117;50.960;5.500;2023-02-01T04:15:17;101201.06;;;4.57
59339;BMP280;45117;50.960;5.500;2023-02-01T04:17:44;101194.22;;;4.56
59339;BMP280;45117;50.960;5.500;2023-02-01T04:20:11;101196.75;;;4.52
59339;BMP280;45117;50.960;5.500;2023-02-01T04:22:37;101180.59;;;4.45
59339;BMP280;45117;50.960;5.500;2023-02-01T04:25:05;101202.94;;;4.56
59339;BMP280;45117;50.960;5.500;2023-02-01T04:27:34;101204.50;;;4.57
59339;BMP280;45117;50.960;5.500;2023-02-01T04:30:01;101208.09;;;4.65
59339;BMP280;45117;50.960;5.500;2023-02-01T04:32:27;101211.53;;;4.66
59339;BMP280;45117;50.960;5.500;2023-02-01T04:34:54;101213.78;;;4.63
59339;BMP280;45117;50.960;5.500;2023-02-01T04:37:20;101200.78;;;4.62
59339;BMP280;45117;50.960;5.500;2023-02-01T04:39:47;101204.56;;;4.61
59339;BMP280;45117;50.960;5.500;2023-02-01T04:42:13;101194.63;;;4.58
59339;BMP280;45117;50.960;5.500;2023-02-01T04:44:41;101193.75;;;4.54
59339;BMP280;45117;50.960;5.500;2023-02-01T04:47:08;101179.16;;;4.48
59339;BMP280;45117;50.960;5.500;2023-02-01T04:49:34;101191.22;;;4.45
59339;BMP280;45117;50.960;5.500;2023-02-01T04:52:01;101185.59;;;4.47
59339;BMP280;45117;50.960;5.500;2023-02-01T04:54:28;101186.03;;;4.49
59339;BMP280;45117;50.960;5.500;2023-02-01T04:56:54;101189.78;;;4.48
59339;BMP280;45117;50.960;5.500;2023-02-01T04:59:20;101179.59;;;4.50
59339;BMP280;45117;50.960;5.500;2023-02-01T05:01:48;101192.69;;;4.43
59339;BMP280;45117;50.960;5.500;2023-02-01T05:04:15;101193.34;;;4.40
59339;BMP280;45117;50.960;5.500;2023-02-01T05:06:43;101195.59;;;4.38
59339;BMP280;45117;50.960;5.500;2023-02-01T05:09:10;101186.41;;;4.35
59339;BMP280;45117;50.960;5.500;2023-02-01T05:11:36;101191.84;;;4.39
59339;BMP280;45117;50.960;5.500;2023-02-01T05:14:20;101183.66;;;4.31
59339;BMP280;45117;50.960;5.500;2023-02-01T05:16:48;101188.44;;;4.26
59339;BMP280;45117;50.960;5.500;2023-02-01T05:19:15;101193.72;;;4.38
59339;BMP280;45117;50.960;5.500;2023-02-01T05:21:41;101185.66;;;4.34
59339;BMP280;45117;50.960;5.500;2023-02-01T05:24:08;101178.59;;;4.42
59339;BMP280;45117;50.960;5.500;2023-02-01T05:26:40;101193.28;;;4.36
59339;BMP280;45117;50.960;5.500;2023-02-01T05:29:08;101192.38;;;4.32
59339;BMP280;45117;50.960;5.500;2023-02-01T05:31:35;101190.19;;;4.34
59339;BMP280;45117;50.960;5.500;2023-02-01T05:34:03;101181.34;;;4.30
59339;BMP280;45117;50.960;5.500;2023-02-01T05:36:30;101183.13;;;4.26
59339;BMP280;45117;50.960;5.500;2023-02-01T05:38:57;101190.50;;;4.32
59339;BMP280;45117;50.960;5.500;2023-02-01T05:41:24;101183.00;;;4.34
59339;BMP280;45117;50.960;5.500;2023-02-01T05:43:50;101176.69;;;4.27
59339;BMP280;45117;50.960;5.500;2023-02-01T05:46:17;101196.59;;;4.33
59339;BMP280;45117;50.960;5.500;2023-02-01T05:48:43;101196.47;;;4.29
59339;BMP280;45117;50.960;5.500;2023-02-01T05:51:12;101199.81;;;4.26
59339;BMP280;45117;50.960;5.500;2023-02-01T05:53:39;101196.16;;;4.31
59339;BMP280;45117;50.960;5.500;2023-02-01T05:56:06;101183.13;;;4.26
59339;BMP280;45117;50.960;5.500;2023-02-01T05:58:32;101190.06;;;4.30
59339;BMP280;45117;50.960;5.500;2023-02-01T06:00:59;101174.69;;;4.24
59339;BMP280;45117;50.960;5.500;2023-02-01T06:03:26;101171.69;;;4.25
59339;BMP280;45117;50.960;5.500;2023-02-01T06:05:53;101170.84;;;4.21
59339;BMP280;45117;50.960;5.500;2023-02-01T06:08:21;101176.47;;;4.20
59339;BMP280;45117;50.960;5.500;2023-02-01T06:10:49;101178.81;;;4.21
59339;BMP280;45117;50.960;5.500;2023-02-01T06:13:16;101188.88;;;4.16
59339;BMP280;45117;50.960;5.500;2023-02-01T06:15:42;101187.47;;;4.06
59339;BMP280;45117;50.960;5.500;2023-02-01T06:18:09;101198.50;;;4.08
59339;BMP280;45117;50.960;5.500;2023-02-01T06:20:36;101198.09;;;4.06
59339;BMP280;45117;50.960;5.500;2023-02-01T06:23:02;101204.50;;;4.05
59339;BMP280;45117;50.960;5.500;2023-02-01T06:25:31;101203.75;;;3.92
59339;BMP280;45117;50.960;5.500;2023-02-01T06:28:00;101204.97;;;3.95
59339;BMP280;45117;50.960;5.500;2023-02-01T06:30:26;101206.84;;;3.94
59339;BMP280;45117;50.960;5.500;2023-02-01T06:32:53;101202.75;;;3.84
59339;BMP280;45117;50.960;5.500;2023-02-01T06:35:19;101211.84;;;3.83
59339;BMP280;45117;50.960;5.500;2023-02-01T06:37:46;101201.22;;;3.83
59339;BMP280;45117;50.960;5.500;2023-02-01T06:40:12;101204.63;;;3.84
59339;BMP280;45117;50.960;5.500;2023-02-01T06:42:40;101210.06;;;3.88
59339;BMP280;45117;50.960;5.500;2023-02-01T06:45:08;101210.72;;;3.84
59339;BMP280;45117;50.960;5.500;2023-02-01T06:47:34;101205.72;;;3.83
59339;BMP280;45117;50.960;5.500;2023-02-01T06:50:01;101200.53;;;3.87
59339;BMP280;45117;50.960;5.500;2023-02-01T06:52:27;101200.97;;;3.76
59339;BMP280;45117;50.960;5.500;2023-02-01T06:54:54;101202.09;;;3.75
59339;BMP280;45117;50.960;5.500;2023-02-01T06:57:21;101211.38;;;3.69
59339;BMP280;45117;50.960;5.500;2023-02-01T06:59:48;101224.09;;;3.76
59339;BMP280;45117;50.960;5.500;2023-02-01T07:02:15;101225.63;;;3.77
59339;BMP280;45117;50.960;5.500;2023-02-01T07:04:41;101222.13;;;3.85
59339;BMP280;45117;50.960;5.500;2023-02-01T07:07:08;101230.41;;;3.83
59339;BMP280;45117;50.960;5.500;2023-02-01T07:09:34;101236.50;;;3.84
59339;BMP280;45117;50.960;5.500;2023-02-01T07:12:01;101229.63;;;3.83
59339;BMP280;45117;50.960;5.500;2023-02-01T07:14:27;101224.44;;;3.87
59339;BMP280;45117;50.960;5.500;2023-02-01T07:16:55;101231.97;;;3.84
59339;BMP280;45117;50.960;5.500;2023-02-01T07:19:21;101234.84;;;3.79
59339;BMP280;45117;50.960;5.500;2023-02-01T07:21:48;101215.16;;;3.68
59339;BMP280;45117;50.960;5.500;2023-02-01T07:24:14;101226.53;;;3.81
59339;BMP280;45117;50.960;5.500;2023-02-01T07:26:41;101225.75;;;3.80
59339;BMP280;45117;50.960;5.500;2023-02-01T07:29:07;101213.59;;;3.79
59339;BMP280;45117;50.960;5.500;2023-02-01T07:31:34;101212.91;;;3.82
59339;BMP280;45117;50.960;5.500;2023-02-01T07:34:02;101205.19;;;3.77
59339;BMP280;45117;50.960;5.500;2023-02-01T07:36:28;101205.84;;;3.74
59339;BMP280;45117;50.960;5.500;2023-02-01T07:38:54;101214.91;;;3.86
59339;BMP280;45117;50.960;5.500;2023-02-01T07:41:21;101225.09;;;3.83
59339;BMP280;45117;50.960;5.500;2023-02-01T07:43:47;101227.53;;;3.76
59339;BMP280;45117;50.960;5.500;2023-02-01T07:46:16;101225.63;;;3.77
59339;BMP280;45117;50.960;5.500;2023-02-01T07:48:42;101224.31;;;3.83
59339;BMP280;45117;50.960;5.500;2023-02-01T07:51:12;101216.34;;;3.83
59339;BMP280;45117;50.960;5.500;2023-02-01T07:53:39;101225.41;;;3.82
59339;BMP280;45117;50.960;5.500;2023-02-01T07:56:11;101215.56;;;3.82
59339;BMP280;45117;50.960;5.500;2023-02-01T07:58:38;101226.44;;;3.90
59339;BMP280;45117;50.960;5.500;2023-02-01T08:01:04;101231.50;;;3.95
59339;BMP280;45117;50.960;5.500;2023-02-01T08:03:46;101224.75;;;3.97
59339;BMP280;45117;50.960;5.500;2023-02-01T08:06:14;101240.03;;;4.00
59339;BMP280;45117;50.960;5.500;2023-02-01T08:08:40;101243.00;;;3.99
59339;BMP280;45117;50.960;5.500;2023-02-01T08:11:07;101247.00;;;4.05
59339;BMP280;45117;50.960;5.500;2023-02-01T08:13:34;101242.66;;;4.13
59339;BMP280;45117;50.960;5.500;2023-02-01T08:16:02;101248.31;;;4.23
59339;BMP280;45117;50.960;5.500;2023-02-01T08:18:29;101250.06;;;4.31
59339;BMP280;45117;50.960;5.500;2023-02-01T08:20:55;101251.47;;;4.41
59339;BMP280;45117;50.960;5.500;2023-02-01T08:23:23;101250.59;;;4.49
59339;BMP280;45117;50.960;5.500;2023-02-01T08:25:50;101265.53;;;4.54
59339;BMP280;45117;50.960;5.500;2023-02-01T08:28:16;101265.88;;;4.52
59339;BMP280;45117;50.960;5.500;2023-02-01T08:30:43;101261.09;;;4.58
59339;BMP280;45117;50.960;5.500;2023-02-01T08:33:09;101275.56;;;4.60
59339;BMP280;45117;50.960;5.500;2023-02-01T08:35:37;101276.78;;;4.63
59339;BMP280;45117;50.960;5.500;2023-02-01T08:38:04;101268.59;;;4.68
59339;BMP280;45117;50.960;5.500;2023-02-01T08:40:33;101268.34;;;4.73
59339;BMP280;45117;50.960;5.500;2023-02-01T08:42:59;101278.06;;;4.81
59339;BMP280;45117;50.960;5.500;2023-02-01T08:45:27;101276.94;;;4.82
59339;BMP280;45117;50.960;5.500;2023-02-01T08:47:55;101283.16;;;4.86
59339;BMP280;45117;50.960;5.500;2023-02-01T08:50:22;101278.72;;;4.91
59339;BMP280;45117;50.960;5.500;2023-02-01T08:52:49;101275.47;;;4.97
59339;BMP280;45117;50.960;5.500;2023-02-01T08:55:16;101274.88;;;5.04
59339;BMP280;45117;50.960;5.500;2023-02-01T08:57:44;101270.06;;;5.09
59339;BMP280;45117;50.960;5.500;2023-02-01T09:00:13;101272.41;;;5.11
59339;BMP280;45117;50.960;5.500;2023-02-01T09:02:40;101274.81;;;5.16
59339;BMP280;45117;50.960;5.500;2023-02-01T09:05:07;101273.03;;;5.20
59339;BMP280;45117;50.960;5.500;2023-02-01T09:07:34;101269.44;;;5.28
59339;BMP280;45117;50.960;5.500;2023-02-01T09:10:01;101273.81;;;5.36
59339;BMP280;45117;50.960;5.500;2023-02-01T09:12:28;101277.34;;;5.40
59339;BMP280;45117;50.960;5.500;2023-02-01T09:14:57;101266.81;;;5.44
59339;BMP280;45117;50.960;5.500;2023-02-01T09:17:24;101278.28;;;5.48
59339;BMP280;45117;50.960;5.500;2023-02-01T09:19:51;101274.06;;;5.47
59339;BMP280;45117;50.960;5.500;2023-02-01T09:22:18;101269.19;;;5.49
59339;BMP280;45117;50.960;5.500;2023-02-01T09:24:44;101268.50;;;5.52
59339;BMP280;45117;50.960;5.500;2023-02-01T09:27:11;101259.91;;;5.59
59339;BMP280;45117;50.960;5.500;2023-02-01T09:29:37;101242.81;;;5.60
59339;BMP280;45117;50.960;5.500;2023-02-01T09:32:05;101247.19;;;5.68
59339;BMP280;45117;50.960;5.500;2023-02-01T09:34:33;101244.28;;;5.73
59339;BMP280;45117;50.960;5.500;2023-02-01T09:36:59;101236.09;;;5.82
59339;BMP280;45117;50.960;5.500;2023-02-01T09:39:26;101242.03;;;5.91
59339;BMP280;45117;50.960;5.500;2023-02-01T09:42:01;101240.03;;;6.04
59339;BMP280;45117;50.960;5.500;2023-02-01T09:44:42;101228.66;;;6.26
59339;BMP280;45117;50.960;5.500;2023-02-01T09:47:16;101233.66;;;6.28
59339;BMP280;45117;50.960;5.500;2023-02-01T09:49:50;101225.19;;;6.41
59339;BMP280;45117;50.960;5.500;2023-02-01T09:52:24;101229.94;;;6.71
59339;BMP280;45117;50.960;5.500;2023-02-01T09:54:55;101231.41;;;7.11
59339;BMP280;45117;50.960;5.500;2023-02-01T09:57:30;101237.38;;;7.27
59339;BMP280;45117;50.960;5.500;2023-02-01T10:00:05;101226.00;;;7.30
59339;BMP280;45117;50.960;5.500;2023-02-01T10:02:36;101223.47;;;7.41
59339;BMP280;45117;50.960;5.500;2023-02-01T10:05:05;101242.75;;;7.53
59339;BMP280;45117;50.960;5.500;2023-02-01T10:07:38;101245.53;;;7.61
59339;BMP280;45117;50.960;5.500;2023-02-01T10:10:10;101245.13;;;7.85
59339;BMP280;45117;50.960;5.500;2023-02-01T10:12:49;101232.88;;;8.10
59339;BMP280;45117;50.960;5.500;2023-02-01T10:15:27;101240.97;;;7.88
59339;BMP280;45117;50.960;5.500;2023-02-01T10:18:10;101242.06;;;8.17
59339;BMP280;45117;50.960;5.500;2023-02-01T10:20:50;101235.59;;;8.14
59339;BMP280;45117;50.960;5.500;2023-02-01T10:23:33;101240.81;;;8.07
59339;BMP280;45117;50.960;5.500;2023-02-01T10:26:08;101241.72;;;8.18
59339;BMP280;45117;50.960;5.500;2023-02-01T10:28:39;101240.59;;;8.19
59339;BMP280;45117;50.960;5.500;2023-02-01T10:31:08;101246.91;;;8.34
59339;BMP280;45117;50.960;5.500;2023-02-01T10:33:39;101251.69;;;8.51
59339;BMP280;45117;50.960;5.500;2023-02-01T10:36:13;101254.00;;;8.53
59339;BMP280;45117;50.960;5.500;2023-02-01T10:38:43;101245.56;;;8.51
59339;BMP280;45117;50.960;5.500;2023-02-01T10:41:12;101251.63;;;8.48
59339;BMP280;45117;50.960;5.500;2023-02-01T10:43:40;101250.38;;;8.38
59339;BMP280;45117;50.960;5.500;2023-02-01T10:46:07;101243.13;;;8.38
59339;BMP280;45117;50.960;5.500;2023-02-01T10:48:35;101230.75;;;8.60
59339;BMP280;45117;50.960;5.500;2023-02-01T10:51:06;101232.47;;;8.42
59339;BMP280;45117;50.960;5.500;2023-02-01T10:53:35;101249.31;;;8.46
59339;BMP280;45117;50.960;5.500;2023-02-01T10:56:06;101230.97;;;8.45
59339;BMP280;45117;50.960;5.500;2023-02-01T10:58:32;101238.34;;;8.55
59339;BMP280;45117;50.960;5.500;2023-02-01T11:01:03;101230.50;;;8.73
59339;BMP280;45117;50.960;5.500;2023-02-01T11:03:34;101243.16;;;8.76
59339;BMP280;45117;50.960;5.500;2023-02-01T11:06:09;101223.31;;;8.80
59339;BMP280;45117;50.960;5.500;2023-02-01T11:08:42;101240.66;;;9.01
59339;BMP280;45117;50.960;5.500;2023-02-01T11:11:09;101229.19;;;8.96
59339;BMP280;45117;50.960;5.500;2023-02-01T11:13:38;101229.78;;;9.23
59339;BMP280;45117;50.960;5.500;2023-02-01T11:16:06;101217.13;;;9.20
59339;BMP280;45117;50.960;5.500;2023-02-01T11:18:36;101218.25;;;9.19
59339;BMP280;45117;50.960;5.500;2023-02-01T11:21:05;101211.44;;;9.29
59339;BMP280;45117;50.960;5.500;2023-02-01T11:23:33;101223.44;;;9.49
59339;BMP280;45117;50.960;5.500;2023-02-01T11:26:09;101207.31;;;9.39
59339;BMP280;45117;50.960;5.500;2023-02-01T11:28:39;101199.47;;;9.16
59339;BMP280;45117;50.960;5.500;2023-02-01T11:31:09;101197.13;;;9.07
59339;BMP280;45117;50.960;5.500;2023-02-01T11:33:39;101197.81;;;8.97
59339;BMP280;45117;50.960;5.500;2023-02-01T11:36:14;101184.44;;;8.97
59339;BMP280;45117;50.960;5.500;2023-02-01T11:38:46;101185.94;;;8.94
59339;BMP280;45117;50.960;5.500;2023-02-01T11:41:16;101188.50;;;8.80
59339;BMP280;45117;50.960;5.500;2023-02-01T11:43:55;101178.09;;;8.72
59339;BMP280;45117;50.960;5.500;2023-02-01T11:46:24;101186.91;;;8.72
59339;BMP280;45117;50.960;5.500;2023-02-01T11:48:53;101175.00;;;8.69
59339;BMP280;45117;50.960;5.500;2023-02-01T11:51:32;101187.75;;;8.83
59339;BMP280;45117;50.960;5.500;2023-02-01T11:54:20;101180.97;;;8.93
59339;BMP280;45117;50.960;5.500;2023-02-01T11:56:58;101192.41;;;8.90
59339;BMP280;45117;50.960;5.500;2023-02-01T12:00:00;101190.75;;;8.78
59339;BMP280;45117;50.960;5.500;2023-02-01T12:02:55;101183.41;;;8.64
59339;BMP280;45117;50.960;5.500;2023-02-01T12:05:29;101164.56;;;8.57
59339;BMP280;45117;50.960;5.500;2023-02-01T12:08:32;101166.91;;;8.62
59339;BMP280;45117;50.960;5.500;2023-02-01T12:11:21;101156.25;;;8.66
59339;BMP280;45117;50.960;5.500;2023-02-01T12:14:02;101163.91;;;8.67
59339;BMP280;45117;50.960;5.500;2023-02-01T12:16:38;101162.66;;;8.58
59339;BMP280;45117;50.960;5.500;2023-02-01T12:19:18;101151.84;;;8.44
59339;BMP280;45117;50.960;5.500;2023-02-01T12:21:57;101144.56;;;8.40
59339;BMP280;45117;50.960;5.500;2023-02-01T12:24:41;101151.44;;;8.41
59339;BMP280;45117;50.960;5.500;2023-02-01T12:27:40;101143.41;;;8.41
59339;BMP280;45117;50.960;5.500;2023-02-01T12:30:31;101142.25;;;8.39
59339;BMP280;45117;50.960;5.500;2023-02-01T12:33:05;101159.06;;;8.39
59339;BMP280;45117;50.960;5.500;2023-02-01T12:35:44;101147.94;;;8.37
59339;BMP280;45117;50.960;5.500;2023-02-01T12:38:31;101158.94;;;8.29
59339;BMP280;45117;50.960;5.500;2023-02-01T12:41:17;101154.72;;;8.28
59339;BMP280;45117;50.960;5.500;2023-02-01T12:43:49;101146.38;;;8.29
59339;BMP280;45117;50.960;5.500;2023-02-01T12:46:21;101159.28;;;8.24
59339;BMP280;45117;50.960;5.500;2023-02-01T12:48:54;101144.38;;;8.23
59339;BMP280;45117;50.960;5.500;2023-02-01T12:51:26;101150.50;;;8.23
59339;BMP280;45117;50.960;5.500;2023-02-01T12:53:57;101145.88;;;8.20
59339;BMP280;45117;50.960;5.500;2023-02-01T12:56:32;101136.75;;;8.21
59339;BMP280;45117;50.960;5.500;2023-02-01T12:59:03;101146.63;;;8.21
59339;BMP280;45117;50.960;5.500;2023-02-01T13:01:34;101152.34;;;8.19
59339;BMP280;45117;50.960;5.500;2023-02-01T13:04:05;101143.50;;;8.11
59339;BMP280;45117;50.960;5.500;2023-02-01T13:06:38;101144.63;;;8.10
59339;BMP280;45117;50.960;5.500;2023-02-01T13:09:10;101136.53;;;8.03
59339;BMP280;45117;50.960;5.500;2023-02-01T13:11:44;101148.00;;;8.07
59339;BMP280;45117;50.960;5.500;2023-02-01T13:14:19;101138.88;;;8.08
59339;BMP280;45117;50.960;5.500;2023-02-01T13:16:51;101138.09;;;8.08
59339;BMP280;45117;50.960;5.500;2023-02-01T13:19:21;101135.78;;;8.06
59339;BMP280;45117;50.960;5.500;2023-02-01T13:21:52;101125.53;;;8.08
59339;BMP280;45117;50.960;5.500;2023-02-01T13:24:30;101126.22;;;8.05
59339;BMP280;45117;50.960;5.500;2023-02-01T13:26:59;101135.41;;;8.04
59339;BMP280;45117;50.960;5.500;2023-02-01T13:29:28;101131.19;;;8.03
59339;BMP280;45117;50.960;5.500;2023-02-01T13:32:07;101130.44;;;8.06
59339;BMP280;45117;50.960;5.500;2023-02-01T13:35:08;101134.31;;;8.09
59339;BMP280;45117;50.960;5.500;2023-02-01T13:37:52;101128.97;;;8.09
59339;BMP280;45117;50.960;5.500;2023-02-01T13:40:33;101120.13;;;8.05
59339;BMP280;45117;50.960;5.500;2023-02-01T13:43:06;101125.84;;;8.07
59339;BMP280;45117;50.960;5.500;2023-02-01T13:45:36;101116.69;;;8.08
59339;BMP280;45117;50.960;5.500;2023-02-01T13:48:19;101109.34;;;7.98
59339;BMP280;45117;50.960;5.500;2023-02-01T13:50:50;101110.50;;;7.97
59339;BMP280;45117;50.960;5.500;2023-02-01T13:53:22;101129.72;;;8.09
59339;BMP280;45117;50.960;5.500;2023-02-01T13:55:55;101131.97;;;8.07
59339;BMP280;45117;50.960;5.500;2023-02-01T13:58:31;101128.59;;;8.10
59339;BMP280;45117;50.960;5.500;2023-02-01T14:01:32;101132.81;;;8.15
59339;BMP280;45117;50.960;5.500;2023-02-01T14:04:01;101119.50;;;8.19
59339;BMP280;45117;50.960;5.500;2023-02-01T14:06:41;101130.56;;;8.17
59339;BMP280;45117;50.960;5.500;2023-02-01T14:09:17;101135.53;;;8.19
59339;BMP280;45117;50.960;5.500;2023-02-01T14:11:49;101139.00;;;8.19
59339;BMP280;45117;50.960;5.500;2023-02-01T14:14:49;101137.53;;;8.25
59339;BMP280;45117;50.960;5.500;2023-02-01T14:17:39;101140.59;;;8.27
59339;BMP280;45117;50.960;5.500;2023-02-01T14:23:29;101136.44;;;8.30
59339;BMP280;45117;50.960;5.500;2023-02-01T14:26:05;101142.13;;;8.28
59339;BMP280;45117;50.960;5.500;2023-02-01T14:28:35;101152.81;;;8.28
59339;BMP280;45117;50.960;5.500;2023-02-01T14:31:14;101147.53;;;8.32
59339;BMP280;45117;50.960;5.500;2023-02-01T14:33:42;101142.19;;;8.32
59339;BMP280;45117;50.960;5.500;2023-02-01T14:36:11;101144.84;;;8.32
59339;BMP280;45117;50.960;5.500;2023-02-01T14:38:38;101132.88;;;8.19